createdAt,value
2022-12-23T00:00:24.718Z,10.40
2022-12-23T00:02:53.289Z,10.40
2022-12-23T00:05:22.018Z,10.30
2022-12-23T00:07:51.857Z,10.40
2022-12-23T00:10:22.355Z,10.40
2022-12-23T00:13:08.423Z,10.40
2022-12-23T00:15:36.831Z,10.40
2022-12-23T00:18:05.412Z,10.40
2022-12-23T00:20:34.433Z,10.40
2022-12-23T00:23:08.445Z,10.40
2022-12-23T00:25:44.904Z,10.40
2022-12-23T00:28:15.618Z,10.40
2022-12-23T00:30:49.022Z,10.40
2022-12-23T00:33:18.725Z,10.40
2022-12-23T00:35:48.591Z,10.40
2022-12-23T00:38:17.649Z,10.40
2022-12-23T00:41:09.562Z,10.40
2022-12-23T00:43:37.939Z,10.40
2022-12-23T00:46:06.613Z,10.40
2022-12-23T00:48:52.202Z,10.40
2022-12-23T00:51:20.647Z,10.40
2022-12-23T00:53:48.980Z,10.40
2022-12-23T00:56:18.871Z,10.40
2022-12-23T00:58:47.556Z,10.50
2022-12-23T01:01:35.328Z,10.40
2022-12-23T01:04:21.402Z,10.40
2022-12-23T01:06:49.878Z,10.40
2022-12-23T01:09:18.356Z,10.40
2022-12-23T01:11:48.283Z,10.40
2022-12-23T01:14:17.811Z,10.50
2022-12-23T01:16:47.154Z,10.40
2022-12-23T01:19:15.640Z,10.40
2022-12-23T01:21:44.290Z,10.50
2022-12-23T01:24:12.716Z,10.50
2022-12-23T01:26:41.087Z,10.50
2022-12-23T01:29:10.918Z,10.50
2022-12-23T01:31:39.481Z,10.50
2022-12-23T01:34:07.973Z,10.50
2022-12-23T01:36:36.904Z,10.50
2022-12-23T01:39:05.588Z,10.50
2022-12-23T01:41:52.378Z,10.50
2022-12-23T01:44:52.993Z,10.50
2022-12-23T01:47:35.187Z,10.50
2022-12-23T01:50:09.241Z,10.50
2022-12-23T01:52:43.962Z,10.60
2022-12-23T01:55:14.016Z,10.50
2022-12-23T01:57:43.620Z,10.50
2022-12-23T02:00:33.731Z,10.50
2022-12-23T02:03:19.863Z,10.50
2022-12-23T02:05:49.568Z,10.50
2022-12-23T02:08:37.070Z,10.50
2022-12-23T02:11:34.891Z,10.50
2022-12-23T02:14:37.924Z,10.50
2022-12-23T02:17:16.097Z,10.50
2022-12-23T02:20:22.729Z,10.60
2022-12-23T02:23:15.683Z,10.60
2022-12-23T02:26:00.261Z,10.60
2022-12-23T02:28:56.689Z,10.60
2022-12-23T02:31:34.643Z,10.60
2022-12-23T02:34:09.908Z,10.60
2022-12-23T02:36:47.009Z,10.60
2022-12-23T02:39:23.160Z,10.60
2022-12-23T02:41:58.797Z,10.60
2022-12-23T02:44:34.447Z,10.60
2022-12-23T02:47:10.059Z,10.50
2022-12-23T02:49:42.545Z,10.50
2022-12-23T02:52:15.546Z,10.50
2022-12-23T02:54:47.283Z,10.50
2022-12-23T02:57:20.963Z,10.50
2022-12-23T02:59:52.562Z,10.50
2022-12-23T03:02:22.676Z,10.50
2022-12-23T03:04:51.216Z,10.50
2022-12-23T03:07:25.265Z,10.50
2022-12-23T03:10:01.996Z,10.50
2022-12-23T03:12:40.928Z,10.50
2022-12-23T03:15:20.598Z,10.50
2022-12-23T03:18:01.101Z,10.60
2022-12-23T03:20:38.073Z,10.60
2022-12-23T03:23:21.771Z,10.60
2022-12-23T03:25:58.952Z,10.60
2022-12-23T03:28:33.915Z,10.50
2022-12-23T03:31:05.803Z,10.60
2022-12-23T03:33:39.587Z,10.60
2022-12-23T03:36:14.133Z,10.60
2022-12-23T03:38:45.805Z,10.60
2022-12-23T03:41:19.069Z,10.60
2022-12-23T03:43:54.428Z,10.60
2022-12-23T03:46:30.276Z,10.60
2022-12-23T03:49:04.641Z,10.60
2022-12-23T03:51:38.143Z,10.60
2022-12-23T03:54:11.787Z,10.60
2022-12-23T03:56:44.630Z,10.60
2022-12-23T03:59:19.409Z,10.50
2022-12-23T04:02:02.111Z,10.50
2022-12-23T04:04:40.585Z,10.50
2022-12-23T04:07:13.584Z,10.50
2022-12-23T04:09:43.071Z,10.50
2022-12-23T04:12:11.981Z,10.50
2022-12-23T04:14:48.557Z,10.50
2022-12-23T04:17:17.873Z,10.50
2022-12-23T04:19:48.334Z,10.40
2022-12-23T04:22:17.722Z,10.40
2022-12-23T04:24:46.315Z,10.40
2022-12-23T04:27:16.129Z,10.40
2022-12-23T04:29:44.866Z,10.40
2022-12-23T04:32:13.273Z,10.40
2022-12-23T04:34:42.601Z,10.30
2022-12-23T04:37:12.607Z,10.30
2022-12-23T04:39:41.046Z,10.30
2022-12-23T04:42:09.638Z,10.30
2022-12-23T04:44:38.067Z,10.30
2022-12-23T04:47:06.837Z,10.30
2022-12-23T04:49:36.814Z,10.30
2022-12-23T04:52:05.601Z,10.30
2022-12-23T04:54:39.280Z,10.30
2022-12-23T04:57:10.756Z,10.30
2022-12-23T04:59:39.069Z,10.30
2022-12-23T05:02:07.811Z,10.30
2022-12-23T05:04:36.652Z,10.30
2022-12-23T05:07:05.832Z,10.30
2022-12-23T05:09:35.942Z,10.30
2022-12-23T05:12:04.523Z,10.30
2022-12-23T05:14:33.019Z,10.30
2022-12-23T05:17:07.082Z,10.30
2022-12-23T05:19:36.427Z,10.30
2022-12-23T05:22:04.990Z,10.30
2022-12-23T05:24:33.516Z,10.30
2022-12-23T05:27:03.505Z,10.30
2022-12-23T05:29:32.180Z,10.30
2022-12-23T05:32:01.033Z,10.30
2022-12-23T05:34:29.671Z,10.30
2022-12-23T05:36:58.751Z,10.30
2022-12-23T05:39:27.268Z,10.30
2022-12-23T05:41:55.950Z,10.30
2022-12-23T05:44:26.096Z,10.30
2022-12-23T05:46:54.730Z,10.30
2022-12-23T05:49:25.499Z,10.30
2022-12-23T05:51:54.328Z,10.30
2022-12-23T05:54:22.997Z,10.30
2022-12-23T05:56:51.371Z,10.30
2022-12-23T05:59:20.323Z,10.30
2022-12-23T06:01:50.961Z,10.30
2022-12-23T06:04:19.704Z,10.30
2022-12-23T06:06:48.410Z,10.30
2022-12-23T06:09:17.290Z,10.30
2022-12-23T06:11:45.867Z,10.30
2022-12-23T06:14:14.769Z,10.30
2022-12-23T06:16:43.641Z,10.30
2022-12-23T06:19:15.330Z,10.30
2022-12-23T06:21:44.097Z,10.30
2022-12-23T06:24:12.974Z,10.20
2022-12-23T06:26:41.721Z,10.30
2022-12-23T06:29:12.289Z,10.30
2022-12-23T06:31:41.069Z,10.30
2022-12-23T06:34:10.019Z,10.30
2022-12-23T06:36:40.693Z,10.30
2022-12-23T06:39:11.533Z,10.30
2022-12-23T06:41:40.627Z,10.30
2022-12-23T06:44:10.346Z,10.30
2022-12-23T06:46:39.191Z,10.30
2022-12-23T06:49:13.469Z,10.30
2022-12-23T06:51:45.013Z,10.30
2022-12-23T06:54:13.799Z,10.30
2022-12-23T06:56:43.061Z,10.20
2022-12-23T06:59:11.736Z,10.20
2022-12-23T07:01:40.807Z,10.20
2022-12-23T07:04:10.640Z,10.20
2022-12-23T07:06:40.066Z,10.20
2022-12-23T07:09:10.759Z,10.20
2022-12-23T07:11:39.468Z,10.10
2022-12-23T07:14:08.319Z,10.10
2022-12-23T07:16:37.820Z,10.10
2022-12-23T07:19:06.637Z,10.10
2022-12-23T07:21:36.882Z,10.10
2022-12-23T07:24:06.080Z,10.10
2022-12-23T07:26:36.133Z,10.10
2022-12-23T07:29:05.356Z,10.10
2022-12-23T07:31:34.143Z,10.00
2022-12-23T07:34:03.369Z,10.00
2022-12-23T07:36:32.703Z,10.00
2022-12-23T07:39:01.725Z,10.00
2022-12-23T07:41:31.107Z,10.00
2022-12-23T07:44:09.580Z,10.10
2022-12-23T07:46:40.778Z,10.10
2022-12-23T07:49:09.609Z,10.10
2022-12-23T07:51:38.376Z,10.10
2022-12-23T07:54:07.646Z,10.00
2022-12-23T07:56:36.216Z,10.00
2022-12-23T07:59:04.816Z,10.00
2022-12-23T08:01:35.211Z,10.10
2022-12-23T08:04:06.351Z,10.10
2022-12-23T08:06:36.647Z,10.10
2022-12-23T08:09:06.774Z,10.10
2022-12-23T08:11:35.359Z,10.10
2022-12-23T08:14:04.040Z,10.10
2022-12-23T08:16:37.881Z,10.10
2022-12-23T08:19:13.715Z,10.10
2022-12-23T08:21:42.031Z,10.10
2022-12-23T08:24:10.843Z,10.20
2022-12-23T08:26:41.812Z,10.20
2022-12-23T08:29:10.393Z,10.20
2022-12-23T08:31:38.901Z,10.20
2022-12-23T08:34:07.362Z,10.20
2022-12-23T08:36:40.169Z,10.30
2022-12-23T08:39:11.011Z,10.30
2022-12-23T08:41:42.031Z,10.30
2022-12-23T08:44:11.193Z,10.30
2022-12-23T08:46:40.932Z,10.30
2022-12-23T08:49:10.468Z,10.30
2022-12-23T08:51:41.270Z,10.40
2022-12-23T08:54:10.436Z,10.30
2022-12-23T08:56:42.930Z,10.40
2022-12-23T08:59:19.254Z,10.40
2022-12-23T09:01:49.386Z,10.40
2022-12-23T09:04:18.496Z,10.40
2022-12-23T09:06:48.992Z,10.50
2022-12-23T09:09:17.747Z,10.50
2022-12-23T09:11:48.769Z,10.60
2022-12-23T09:14:20.928Z,10.60
2022-12-23T09:16:51.990Z,10.60
2022-12-23T09:19:20.567Z,10.60
2022-12-23T09:21:50.631Z,10.60
2022-12-23T09:24:18.981Z,10.60
2022-12-23T09:26:49.380Z,10.60
2022-12-23T09:29:18.006Z,10.60
2022-12-23T09:31:46.500Z,10.70
2022-12-23T09:34:15.081Z,10.70
2022-12-23T09:36:43.572Z,10.70
2022-12-23T09:39:13.522Z,10.60
2022-12-23T09:41:53.708Z,10.60
2022-12-23T09:44:44.859Z,10.60
2022-12-23T09:47:17.043Z,10.60
2022-12-23T09:49:49.942Z,10.60
2022-12-23T09:52:24.346Z,10.60
2022-12-23T09:54:56.688Z,10.60
2022-12-23T09:57:35.405Z,10.60
2022-12-23T10:00:08.312Z,10.60
2022-12-23T10:02:46.675Z,10.60
2022-12-23T10:05:29.176Z,10.60
2022-12-23T10:08:00.374Z,10.60
2022-12-23T10:10:36.388Z,10.70
2022-12-23T10:13:08.757Z,10.70
2022-12-23T10:15:40.295Z,10.70
2022-12-23T10:18:22.027Z,10.70
2022-12-23T10:20:55.070Z,10.70
2022-12-23T10:23:31.602Z,10.70
2022-12-23T10:26:03.649Z,10.60
2022-12-23T10:28:32.178Z,10.70
2022-12-23T10:31:30.887Z,10.70
2022-12-23T10:34:01.732Z,10.70
2022-12-23T10:36:40.953Z,10.90
2022-12-23T10:39:20.050Z,11.00
2022-12-23T10:42:01.416Z,11.10
2022-12-23T10:44:50.845Z,11.20
2022-12-23T10:47:29.832Z,11.20
2022-12-23T10:50:09.755Z,11.10
2022-12-23T10:52:41.459Z,11.10
2022-12-23T10:55:33.275Z,11.10
2022-12-23T10:58:08.873Z,11.10
2022-12-23T11:00:41.464Z,11.00
2022-12-23T11:03:16.922Z,11.00
2022-12-23T11:05:46.823Z,11.00
2022-12-23T11:08:15.344Z,11.00
2022-12-23T11:10:43.853Z,11.00
2022-12-23T11:13:26.013Z,10.90
2022-12-23T11:15:54.631Z,10.90
2022-12-23T11:18:23.170Z,10.90
2022-12-23T11:21:05.602Z,10.90
2022-12-23T11:23:36.614Z,10.90
2022-12-23T11:26:07.299Z,10.90
2022-12-23T11:28:39.643Z,10.90
2022-12-23T11:31:12.272Z,10.90
2022-12-23T11:33:46.962Z,10.80
2022-12-23T11:36:23.967Z,10.80
2022-12-23T11:38:54.883Z,10.80
2022-12-23T11:41:26.537Z,10.80
2022-12-23T11:44:00.208Z,10.90
2022-12-23T11:46:32.009Z,10.90
2022-12-23T11:49:17.759Z,11.00
2022-12-23T11:51:48.725Z,11.00
2022-12-23T11:54:19.521Z,11.10
2022-12-23T11:56:52.431Z,11.10
2022-12-23T11:59:30.862Z,11.20
2022-12-23T12:02:02.692Z,11.20
2022-12-23T12:08:56.898Z,11.20
2022-12-23T12:11:52.599Z,11.10
2022-12-23T12:14:34.646Z,11.10
2022-12-23T12:17:19.093Z,11.10
2022-12-23T12:20:35.434Z,11.00
2022-12-23T12:23:46.139Z,11.00
2022-12-23T12:26:32.367Z,11.00
2022-12-23T12:29:28.066Z,11.00
2022-12-23T12:32:29.846Z,11.00
2022-12-23T12:35:39.510Z,10.90
2022-12-23T12:38:35.217Z,10.80
2022-12-23T12:41:12.345Z,10.70
2022-12-23T12:43:47.008Z,10.60
2022-12-23T12:46:28.610Z,10.50
2022-12-23T12:49:12.619Z,10.50
2022-12-23T12:52:16.508Z,10.50
2022-12-23T12:55:00.489Z,10.50
2022-12-23T12:57:38.783Z,10.50
2022-12-23T13:01:07.899Z,10.50
2022-12-23T13:04:19.429Z,10.40
2022-12-23T13:07:04.203Z,10.40
2022-12-23T13:09:49.179Z,10.40
2022-12-23T13:12:24.329Z,10.40
2022-12-23T13:15:00.750Z,10.40
2022-12-23T13:17:34.376Z,10.40
2022-12-23T13:20:12.748Z,10.30
2022-12-23T13:22:44.047Z,10.30
2022-12-23T13:25:16.939Z,10.30
2022-12-23T13:27:53.405Z,10.20
2022-12-23T13:30:24.413Z,10.20
2022-12-23T13:33:06.974Z,10.20
2022-12-23T13:36:06.430Z,10.20
2022-12-23T13:39:02.943Z,10.20
2022-12-23T13:41:35.783Z,10.20
2022-12-23T13:44:07.323Z,10.20
2022-12-23T13:46:44.294Z,10.10
2022-12-23T13:49:20.803Z,10.20
2022-12-23T13:51:56.537Z,10.10
2022-12-23T13:54:39.238Z,10.10
2022-12-23T13:57:18.057Z,10.00
2022-12-23T14:00:05.444Z,10.10
2022-12-23T14:02:44.913Z,10.00
2022-12-23T14:05:32.747Z,10.00
2022-12-23T14:08:09.341Z,10.00
2022-12-23T14:10:40.381Z,10.00
2022-12-23T14:13:09.995Z,9.90
2022-12-23T14:16:05.201Z,10.00
2022-12-23T14:18:47.786Z,9.90
2022-12-23T14:21:27.438Z,9.90
2022-12-23T14:24:13.712Z,10.00
2022-12-23T14:27:14.201Z,9.90
2022-12-23T14:29:52.543Z,9.90
2022-12-23T14:32:26.053Z,9.90
2022-12-23T14:35:19.614Z,9.90
2022-12-23T14:38:23.262Z,10.00
2022-12-23T14:41:00.303Z,10.00
2022-12-23T14:43:51.315Z,10.00
2022-12-23T14:46:57.454Z,10.00
2022-12-23T14:49:44.183Z,10.00
2022-12-23T14:52:49.288Z,10.00
2022-12-23T14:55:54.559Z,10.00
2022-12-23T14:58:55.019Z,10.00
2022-12-23T15:01:32.864Z,10.00
2022-12-23T15:04:09.499Z,10.00
2022-12-23T15:06:40.933Z,10.10
2022-12-23T15:09:20.021Z,10.10
2022-12-23T15:11:49.037Z,10.20
2022-12-23T15:14:28.725Z,10.20
2022-12-23T15:16:57.119Z,10.20
2022-12-23T15:19:27.021Z,10.20
2022-12-23T15:22:20.598Z,10.30
2022-12-23T15:24:49.602Z,10.30
2022-12-23T15:27:28.936Z,10.30
2022-12-23T15:30:01.123Z,10.30
2022-12-23T15:32:30.807Z,10.40
2022-12-23T15:35:05.186Z,10.40
2022-12-23T15:37:34.739Z,10.50
2022-12-23T15:40:12.249Z,10.60
2022-12-23T15:42:48.848Z,10.70
2022-12-23T15:45:36.634Z,10.70
2022-12-23T15:48:07.141Z,10.80
2022-12-23T15:50:41.559Z,10.80
2022-12-23T15:53:14.373Z,11.00
2022-12-23T15:55:42.973Z,11.00
2022-12-23T15:58:20.291Z,11.10
2022-12-23T16:00:58.071Z,11.10
2022-12-23T16:03:33.018Z,11.10
2022-12-23T16:06:16.212Z,11.20
2022-12-23T16:08:45.047Z,11.10
2022-12-23T16:11:18.886Z,11.20
2022-12-23T16:13:59.264Z,11.30
2022-12-23T16:16:43.285Z,11.30
2022-12-23T16:19:39.977Z,11.30
2022-12-23T16:22:30.344Z,11.40
2022-12-23T16:25:13.129Z,11.40
2022-12-23T16:27:43.273Z,11.50
2022-12-23T16:30:17.929Z,11.50
2022-12-23T16:32:52.537Z,11.60
2022-12-23T16:35:39.661Z,11.70
2022-12-23T16:38:17.705Z,11.80
2022-12-23T16:40:48.295Z,11.90
2022-12-23T16:43:17.478Z,12.10
2022-12-23T16:45:47.450Z,12.20
2022-12-23T16:48:21.868Z,12.20
2022-12-23T16:50:52.818Z,12.30
2022-12-23T16:53:21.894Z,12.40
2022-12-23T16:55:56.611Z,12.40
2022-12-23T16:58:26.899Z,12.50
2022-12-23T17:00:55.455Z,12.50
2022-12-23T17:03:25.244Z,12.60
2022-12-23T17:05:53.743Z,12.60
2022-12-23T17:08:22.298Z,12.60
2022-12-23T17:10:51.659Z,12.70
2022-12-23T17:13:22.141Z,12.70
2022-12-23T17:15:50.851Z,12.70
2022-12-23T17:18:24.721Z,12.70
2022-12-23T17:20:56.972Z,12.60
2022-12-23T17:23:30.576Z,12.70
2022-12-23T17:25:59.345Z,12.70
2022-12-23T17:28:32.202Z,12.60
2022-12-23T17:31:01.049Z,12.60
2022-12-23T17:33:32.780Z,12.70
2022-12-23T17:36:03.437Z,12.70
2022-12-23T17:38:32.608Z,12.70
2022-12-23T17:41:03.251Z,12.70
2022-12-23T17:43:31.525Z,12.70
2022-12-23T17:46:00.032Z,12.70
2022-12-23T17:48:31.903Z,12.70
2022-12-23T17:51:00.652Z,12.70
2022-12-23T17:53:30.620Z,12.60
2022-12-23T17:55:59.121Z,12.50
2022-12-23T17:58:27.597Z,12.50
2022-12-23T18:00:56.185Z,12.50
2022-12-23T18:03:26.257Z,12.50
2022-12-23T18:06:01.457Z,12.50
2022-12-23T18:08:32.483Z,12.50
2022-12-23T18:11:01.224Z,12.50
2022-12-23T18:13:31.452Z,12.50
2022-12-23T18:16:00.007Z,12.50
2022-12-23T18:18:35.619Z,12.50
2022-12-23T18:21:10.659Z,12.50
2022-12-23T18:23:40.934Z,12.50
2022-12-23T18:26:14.519Z,12.60
2022-12-23T18:28:44.679Z,12.60
2022-12-23T18:31:16.849Z,12.50
2022-12-23T18:33:45.588Z,12.50
2022-12-23T18:36:22.206Z,12.40
2022-12-23T18:38:55.336Z,12.30
2022-12-23T18:41:24.765Z,12.20
2022-12-23T18:43:53.960Z,12.20
2022-12-23T18:46:22.527Z,12.20
2022-12-23T18:48:51.769Z,12.20
2022-12-23T18:51:22.702Z,12.10
2022-12-23T18:53:53.772Z,12.10
2022-12-23T18:56:22.846Z,12.20
2022-12-23T18:58:51.387Z,12.20
2022-12-23T19:01:19.955Z,12.20
2022-12-23T19:03:48.673Z,12.20
2022-12-23T19:06:19.992Z,12.30
2022-12-23T19:08:48.578Z,12.40
2022-12-23T19:11:21.659Z,12.40
2022-12-23T19:13:51.395Z,12.40
2022-12-23T19:16:22.385Z,12.30
2022-12-23T19:18:51.675Z,12.20
2022-12-23T19:21:21.375Z,12.10
2022-12-23T19:23:50.057Z,12.10
2022-12-23T19:26:20.513Z,12.10
2022-12-23T19:28:49.491Z,12.10
2022-12-23T19:31:19.659Z,12.10
2022-12-23T19:33:48.735Z,12.10
2022-12-23T19:36:19.079Z,12.10
2022-12-23T19:38:47.628Z,12.10
2022-12-23T19:41:16.296Z,12.10
2022-12-23T19:43:47.841Z,12.10
2022-12-23T19:46:17.706Z,12.10
2022-12-23T19:48:52.301Z,12.10
2022-12-23T19:51:20.910Z,12.10
2022-12-23T19:53:52.836Z,12.10
2022-12-23T19:56:22.361Z,12.10
2022-12-23T19:58:54.160Z,12.10
2022-12-23T20:01:25.887Z,12.10
2022-12-23T20:03:56.469Z,12.10
2022-12-23T20:06:26.941Z,12.20
2022-12-23T20:09:00.345Z,12.20
2022-12-23T20:11:32.803Z,12.20
2022-12-23T20:14:03.418Z,12.20
2022-12-23T20:16:32.470Z,12.20
2022-12-23T20:19:01.418Z,12.20
2022-12-23T20:21:30.286Z,12.10
2022-12-23T20:23:58.775Z,12.10
2022-12-23T20:26:29.132Z,12.10
2022-12-23T20:28:57.969Z,12.10
2022-12-23T20:31:30.038Z,12.10
2022-12-23T20:33:58.893Z,12.00
2022-12-23T20:36:31.804Z,11.90
2022-12-23T20:39:02.308Z,11.90
2022-12-23T20:41:32.764Z,11.80
2022-12-23T20:46:52.575Z,11.90
2022-12-23T20:49:21.313Z,11.90
2022-12-23T20:51:49.902Z,11.90
2022-12-23T20:54:18.349Z,11.80
2022-12-23T20:56:46.724Z,11.70
2022-12-23T20:59:15.275Z,11.60
2022-12-23T21:01:44.209Z,11.60
2022-12-23T21:04:16.733Z,11.60
2022-12-23T21:06:46.959Z,11.70
2022-12-23T21:09:16.850Z,11.80
2022-12-23T21:11:47.390Z,11.80
2022-12-23T21:14:16.554Z,11.80
2022-12-23T21:16:45.127Z,11.80
2022-12-23T21:19:18.920Z,11.70
2022-12-23T21:21:48.304Z,11.60
2022-12-23T21:24:17.135Z,11.50
2022-12-23T21:26:50.253Z,11.50
2022-12-23T21:29:22.936Z,11.60
2022-12-23T21:31:51.755Z,11.60
2022-12-23T21:34:21.685Z,11.60
2022-12-23T21:36:50.167Z,11.50
2022-12-23T21:39:19.055Z,11.40
2022-12-23T21:41:49.291Z,11.30
2022-12-23T21:44:17.569Z,11.30
2022-12-23T21:46:46.087Z,11.20
2022-12-23T21:49:14.859Z,11.20
2022-12-23T21:51:45.031Z,11.20
2022-12-23T21:54:14.045Z,11.20
2022-12-23T21:56:43.290Z,11.10
2022-12-23T21:59:13.691Z,11.20
2022-12-23T22:01:42.619Z,11.10
2022-12-23T22:04:11.397Z,11.10
2022-12-23T22:06:43.746Z,11.10
2022-12-23T22:09:15.806Z,11.10
2022-12-23T22:11:45.143Z,11.10
2022-12-23T22:14:19.686Z,11.10
2022-12-23T22:16:48.476Z,11.10
2022-12-23T22:19:17.343Z,11.10
2022-12-23T22:21:45.797Z,11.10
2022-12-23T22:24:15.949Z,11.10
2022-12-23T22:26:44.303Z,11.00
2022-12-23T22:29:13.084Z,11.00
2022-12-23T22:31:44.600Z,11.00
2022-12-23T22:34:15.690Z,11.00
2022-12-23T22:36:44.309Z,11.00
2022-12-23T22:39:20.704Z,11.00
2022-12-23T22:41:49.493Z,11.00
2022-12-23T22:44:18.391Z,11.10
2022-12-23T22:46:47.236Z,11.10
2022-12-23T22:49:17.353Z,11.10
2022-12-23T22:51:46.085Z,11.10
2022-12-23T22:54:16.291Z,11.00
2022-12-23T22:56:45.874Z,11.10
2022-12-23T22:59:21.450Z,11.10
2022-12-23T23:01:51.102Z,11.20
2022-12-23T23:13:55.189Z,11.40
2022-12-23T23:19:46.044Z,11.50
2022-12-23T23:22:14.483Z,11.40
2022-12-23T23:24:42.933Z,11.50
2022-12-23T23:27:11.528Z,11.40
2022-12-23T23:29:40.089Z,11.40
2022-12-23T23:32:11.020Z,11.40
2022-12-23T23:34:40.687Z,11.40
2022-12-23T23:37:09.145Z,11.40
2022-12-23T23:39:37.784Z,11.40
2022-12-23T23:42:07.534Z,11.40
2022-12-23T23:44:36.084Z,11.40
2022-12-23T23:47:05.086Z,11.40
2022-12-23T23:49:35.113Z,11.30
2022-12-23T23:52:03.623Z,11.30
2022-12-23T23:54:33.003Z,11.30
2022-12-23T23:57:01.550Z,11.30
2022-12-23T23:59:30.445Z,11.30
